createdAt,value
2022-10-02T00:00:31.599Z,73.60
2022-10-02T00:03:14.259Z,73.88
2022-10-02T00:05:59.002Z,73.97
2022-10-02T00:08:45.408Z,74.15
2022-10-02T00:11:19.326Z,74.30
2022-10-02T00:13:51.855Z,74.30
2022-10-02T00:16:41.249Z,74.38
2022-10-02T00:19:18.596Z,74.38
2022-10-02T00:22:14.264Z,74.56
2022-10-02T00:24:47.323Z,74.48
2022-10-02T00:27:38.746Z,74.60
2022-10-02T00:30:06.138Z,74.67
2022-10-02T00:32:51.064Z,74.62
2022-10-02T00:35:24.422Z,74.54
2022-10-02T00:38:03.685Z,74.53
2022-10-02T00:41:02.139Z,74.18
2022-10-02T00:43:56.898Z,74.26
2022-10-02T00:46:35.344Z,74.42
2022-10-02T00:49:12.422Z,74.31
2022-10-02T00:51:55.630Z,74.62
2022-10-02T00:54:51.130Z,74.71
2022-10-02T00:57:29.891Z,74.60
2022-10-02T01:00:06.032Z,74.86
2022-10-02T01:02:58.699Z,74.87
2022-10-02T01:05:27.255Z,74.32
2022-10-02T01:07:55.161Z,74.87
2022-10-02T01:10:25.415Z,74.97
2022-10-02T01:12:56.045Z,75.07
2022-10-02T01:15:28.105Z,75.33
2022-10-02T01:17:55.318Z,75.00
2022-10-02T01:20:34.644Z,75.05
2022-10-02T01:23:08.640Z,74.96
2022-10-02T01:25:35.733Z,74.61
2022-10-02T01:28:02.532Z,74.53
2022-10-02T01:30:29.921Z,74.28
2022-10-02T01:32:58.859Z,74.08
2022-10-02T01:35:31.549Z,73.87
2022-10-02T01:37:59.751Z,73.84
2022-10-02T01:40:31.918Z,73.79
2022-10-02T01:43:09.047Z,73.72
2022-10-02T01:45:54.268Z,73.64
2022-10-02T01:48:42.630Z,73.77
2022-10-02T01:51:21.821Z,73.54
2022-10-02T01:53:58.816Z,73.56
2022-10-02T01:56:43.431Z,73.34
2022-10-02T01:59:16.690Z,73.33
2022-10-02T02:02:03.753Z,73.32
2022-10-02T02:05:03.730Z,73.18
2022-10-02T02:07:58.468Z,73.54
2022-10-02T02:10:45.082Z,73.33
2022-10-02T02:13:26.606Z,73.63
2022-10-02T02:16:23.018Z,73.38
2022-10-02T02:18:52.930Z,73.41
2022-10-02T02:21:46.629Z,73.61
2022-10-02T02:24:25.762Z,73.29
2022-10-02T02:26:55.505Z,73.56
2022-10-02T02:29:23.886Z,73.60
2022-10-02T02:31:58.062Z,73.53
2022-10-02T02:34:46.680Z,73.57
2022-10-02T02:37:19.057Z,73.53
2022-10-02T02:39:46.867Z,73.47
2022-10-02T02:42:17.780Z,73.37
2022-10-02T02:45:04.742Z,73.38
2022-10-02T02:47:42.102Z,73.29
2022-10-02T02:50:20.951Z,73.45
2022-10-02T02:52:58.487Z,73.49
2022-10-02T02:55:31.291Z,73.29
2022-10-02T02:58:24.387Z,73.35
2022-10-02T03:00:51.109Z,73.36
2022-10-02T03:03:18.097Z,73.34
2022-10-02T03:05:48.141Z,73.38
2022-10-02T03:08:29.124Z,73.48
2022-10-02T03:11:19.080Z,73.33
2022-10-02T03:13:51.833Z,73.53
2022-10-02T03:16:22.146Z,73.36
2022-10-02T03:18:51.837Z,73.30
2022-10-02T03:21:35.724Z,73.27
2022-10-02T03:24:17.649Z,73.42
2022-10-02T03:26:53.752Z,73.24
2022-10-02T03:29:26.646Z,73.31
2022-10-02T03:31:54.143Z,73.25
2022-10-02T03:34:21.296Z,73.20
2022-10-02T03:36:48.050Z,73.14
2022-10-02T03:39:30.215Z,72.90
2022-10-02T03:41:57.020Z,73.16
2022-10-02T03:44:23.959Z,73.13
2022-10-02T03:46:50.776Z,73.20
2022-10-02T03:49:17.575Z,73.08
2022-10-02T03:51:44.396Z,73.25
2022-10-02T03:54:17.913Z,73.27
2022-10-02T03:56:56.739Z,73.07
2022-10-02T03:59:40.430Z,73.23
2022-10-02T04:02:13.380Z,73.37
2022-10-02T04:04:49.981Z,73.26
2022-10-02T04:07:22.924Z,73.43
2022-10-02T04:10:22.101Z,73.54
2022-10-02T04:12:51.052Z,73.64
2022-10-02T04:15:23.578Z,73.63
2022-10-02T04:17:58.931Z,73.51
2022-10-02T04:20:31.660Z,73.65
2022-10-02T04:23:05.415Z,73.82
2022-10-02T04:25:39.485Z,73.77
2022-10-02T04:28:08.309Z,73.75
2022-10-02T04:30:35.080Z,73.83
2022-10-02T04:33:12.433Z,73.64
2022-10-02T04:36:02.684Z,73.65
2022-10-02T04:38:45.613Z,73.66
2022-10-02T04:41:47.073Z,73.77
2022-10-02T04:44:36.597Z,73.92
2022-10-02T04:47:14.208Z,74.14
2022-10-02T04:49:54.656Z,74.19
2022-10-02T04:52:35.167Z,74.21
2022-10-02T04:55:23.563Z,74.32
2022-10-02T04:58:08.492Z,74.19
2022-10-02T05:00:57.920Z,74.40
2022-10-02T05:03:58.724Z,74.60
2022-10-02T05:06:54.884Z,74.70
2022-10-02T05:09:28.422Z,74.63
2022-10-02T05:12:39.367Z,74.76
2022-10-02T05:15:15.572Z,74.78
2022-10-02T05:18:14.586Z,74.91
2022-10-02T05:21:02.500Z,74.92
2022-10-02T05:23:50.996Z,74.92
2022-10-02T05:26:38.720Z,74.97
2022-10-02T05:29:24.045Z,75.10
2022-10-02T05:32:07.571Z,75.00
2022-10-02T05:34:45.477Z,75.04
2022-10-02T05:37:27.384Z,74.78
2022-10-02T05:40:17.825Z,74.77
2022-10-02T05:42:52.261Z,74.70
2022-10-02T05:45:27.465Z,74.71
2022-10-02T05:48:03.604Z,74.84
2022-10-02T05:50:34.868Z,74.94
2022-10-02T05:53:35.409Z,74.85
2022-10-02T05:56:09.140Z,74.88
2022-10-02T05:58:48.368Z,74.80
2022-10-02T06:01:23.362Z,74.89
2022-10-02T06:04:13.531Z,74.67
2022-10-02T06:06:51.623Z,74.60
2022-10-02T06:09:22.961Z,74.92
2022-10-02T06:11:59.921Z,75.28
2022-10-02T06:14:47.327Z,75.52
2022-10-02T06:17:43.538Z,75.84
2022-10-02T06:20:21.066Z,75.86
2022-10-02T06:22:59.355Z,75.56
2022-10-02T06:25:31.083Z,75.35
2022-10-02T06:28:02.810Z,75.44
2022-10-02T06:30:32.981Z,75.65
2022-10-02T06:33:09.853Z,75.72
2022-10-02T06:35:58.600Z,75.71
2022-10-02T06:38:45.208Z,75.43
2022-10-02T06:41:20.543Z,75.12
2022-10-02T06:44:05.413Z,75.09
2022-10-02T06:46:43.017Z,75.34
2022-10-02T06:49:46.420Z,75.93
2022-10-02T06:52:38.336Z,76.40
2022-10-02T06:55:35.560Z,75.94
2022-10-02T06:58:13.481Z,75.50
2022-10-02T07:00:48.475Z,75.43
2022-10-02T07:03:28.816Z,75.08
2022-10-02T07:06:25.968Z,75.01
2022-10-02T07:09:15.094Z,74.66
2022-10-02T07:11:53.928Z,75.29
2022-10-02T07:14:42.551Z,75.64
2022-10-02T07:17:22.447Z,75.80
2022-10-02T07:20:03.789Z,77.00
2022-10-02T07:23:15.092Z,77.05
2022-10-02T07:26:10.496Z,76.24
2022-10-02T07:29:06.467Z,75.22
2022-10-02T07:31:55.952Z,74.07
2022-10-02T07:34:40.642Z,73.05
2022-10-02T07:37:41.088Z,72.03
2022-10-02T07:40:29.623Z,71.43
2022-10-02T07:43:06.255Z,71.25
2022-10-02T07:45:37.326Z,71.31
2022-10-02T07:48:22.204Z,71.18
2022-10-02T07:51:06.283Z,71.53
2022-10-02T07:53:49.815Z,71.65
2022-10-02T07:56:21.708Z,71.75
2022-10-02T07:59:00.707Z,71.94
2022-10-02T08:01:50.998Z,71.98
2022-10-02T08:04:24.636Z,72.27
2022-10-02T08:06:54.846Z,72.48
2022-10-02T08:09:45.954Z,72.73
2022-10-02T08:12:40.953Z,72.85
2022-10-02T08:15:22.412Z,72.72
2022-10-02T08:18:29.910Z,72.95
2022-10-02T08:20:54.213Z,72.91
2022-10-02T08:23:21.066Z,72.97
2022-10-02T08:26:07.308Z,72.87
2022-10-02T08:28:49.288Z,72.71
2022-10-02T08:31:16.224Z,72.91
2022-10-02T08:33:45.819Z,72.91
2022-10-02T08:36:28.534Z,72.99
2022-10-02T08:39:00.670Z,72.87
2022-10-02T08:42:04.409Z,72.96
2022-10-02T08:44:49.048Z,72.90
2022-10-02T08:47:30.086Z,72.64
2022-10-02T08:50:21.986Z,72.30
2022-10-02T08:52:54.122Z,72.32
2022-10-02T08:55:50.368Z,72.21
2022-10-02T08:58:45.058Z,72.22
2022-10-02T09:01:27.185Z,72.20
2022-10-02T09:04:16.208Z,72.26
2022-10-02T09:07:30.700Z,72.68
2022-10-02T09:10:42.521Z,72.87
2022-10-02T09:13:41.239Z,72.52
2022-10-02T09:19:19.279Z,72.64
2022-10-02T09:22:01.740Z,72.30
2022-10-02T09:24:55.480Z,72.32
2022-10-02T09:27:37.808Z,72.38
2022-10-02T09:30:21.179Z,72.12
2022-10-02T09:33:20.610Z,72.12
2022-10-02T09:38:58.434Z,72.33
2022-10-02T09:41:47.179Z,72.55
2022-10-02T09:47:48.495Z,72.44
2022-10-02T09:50:30.392Z,72.42
2022-10-02T09:53:23.382Z,72.45
2022-10-02T09:56:22.270Z,72.52
2022-10-02T09:58:50.189Z,72.16
2022-10-02T10:01:30.319Z,72.28
2022-10-02T10:04:09.118Z,72.12
2022-10-02T10:06:39.612Z,72.10
2022-10-02T10:09:34.970Z,72.03
2022-10-02T10:12:10.833Z,71.73
2022-10-02T10:14:56.436Z,71.61
2022-10-02T10:17:45.756Z,70.82
2022-10-02T10:20:40.738Z,71.70
2022-10-02T10:23:24.463Z,71.10
2022-10-02T10:26:23.803Z,71.47
2022-10-02T10:28:50.505Z,71.56
2022-10-02T10:31:51.389Z,71.55
2022-10-02T10:34:55.459Z,71.64
2022-10-02T10:38:12.613Z,71.55
2022-10-02T10:41:28.028Z,71.63
2022-10-02T10:44:22.310Z,71.34
2022-10-02T10:47:24.705Z,71.18
2022-10-02T10:50:28.111Z,71.63
2022-10-02T10:53:21.240Z,71.56
2022-10-02T10:56:02.334Z,71.51
2022-10-02T10:59:06.935Z,71.39
2022-10-02T11:01:49.531Z,71.75
2022-10-02T11:04:27.658Z,71.67
2022-10-02T11:07:28.275Z,70.68
2022-10-02T11:10:07.669Z,71.42
2022-10-02T11:12:34.275Z,71.70
2022-10-02T11:15:31.922Z,71.73
2022-10-02T11:18:31.065Z,71.64
2022-10-02T11:21:19.986Z,71.37
2022-10-02T11:24:17.432Z,71.51
2022-10-02T11:27:23.830Z,71.73
2022-10-02T11:30:21.865Z,71.66
2022-10-02T11:33:15.094Z,70.73
2022-10-02T11:36:41.671Z,70.48
2022-10-02T11:39:15.513Z,70.65
2022-10-02T11:42:12.837Z,70.88
2022-10-02T11:44:52.470Z,71.40
2022-10-02T11:47:34.155Z,71.76
2022-10-02T11:50:37.991Z,71.82
2022-10-02T11:53:23.785Z,72.20
2022-10-02T11:56:15.319Z,72.57
2022-10-02T11:58:53.769Z,72.46
2022-10-02T12:01:45.300Z,72.92
2022-10-02T12:04:40.682Z,72.68
2022-10-02T12:07:18.683Z,72.60
2022-10-02T12:10:04.458Z,72.55
2022-10-02T12:12:54.701Z,72.54
2022-10-02T12:15:48.745Z,72.71
2022-10-02T12:18:43.570Z,72.92
2022-10-02T12:21:32.409Z,73.18
2022-10-02T12:24:31.982Z,73.60
2022-10-02T12:27:18.675Z,73.51
2022-10-02T12:30:07.058Z,73.57
2022-10-02T12:32:46.504Z,73.69
2022-10-02T12:35:20.505Z,73.43
2022-10-02T12:38:25.453Z,73.17
2022-10-02T12:40:58.697Z,72.96
2022-10-02T12:43:55.243Z,72.66
2022-10-02T12:46:45.941Z,72.48
2022-10-02T12:50:02.743Z,72.43
2022-10-02T12:52:40.468Z,72.19
2022-10-02T12:55:44.833Z,72.05
2022-10-02T12:58:25.612Z,72.13
2022-10-02T13:01:20.821Z,72.04
2022-10-02T13:04:47.630Z,71.71
2022-10-02T13:07:39.207Z,71.87
2022-10-02T13:10:41.193Z,72.18
2022-10-02T13:13:31.447Z,72.40
2022-10-02T13:16:07.308Z,72.37
2022-10-02T13:18:57.661Z,72.35
2022-10-02T13:21:50.846Z,72.35
2022-10-02T13:24:36.284Z,72.54
2022-10-02T13:27:28.263Z,72.73
2022-10-02T13:30:18.332Z,72.68
2022-10-02T13:32:56.973Z,72.89
2022-10-02T13:35:45.882Z,72.84
2022-10-02T13:38:20.752Z,72.62
2022-10-02T13:41:29.828Z,72.84
2022-10-02T13:44:18.356Z,73.43
2022-10-02T13:47:03.605Z,73.35
2022-10-02T13:49:33.452Z,73.37
2022-10-02T13:52:22.205Z,73.21
2022-10-02T13:55:00.190Z,73.32
2022-10-02T13:57:41.724Z,73.42
2022-10-02T14:00:33.801Z,72.94
2022-10-02T14:03:09.812Z,73.25
2022-10-02T14:05:57.817Z,72.99
2022-10-02T14:08:43.108Z,73.15
2022-10-02T14:11:49.113Z,72.93
2022-10-02T14:14:28.472Z,73.13
2022-10-02T14:17:25.781Z,72.90
2022-10-02T14:20:17.655Z,73.12
2022-10-02T14:23:12.913Z,73.04
2022-10-02T14:25:47.588Z,73.26
2022-10-02T14:28:35.797Z,72.75
2022-10-02T14:31:37.890Z,73.01
2022-10-02T14:34:05.231Z,72.97
2022-10-02T14:36:48.727Z,72.70
2022-10-02T14:39:34.274Z,72.50
2022-10-02T14:42:04.376Z,72.57
2022-10-02T14:45:06.667Z,71.83
2022-10-02T14:47:58.613Z,70.58
2022-10-02T14:51:06.689Z,68.24
2022-10-02T14:53:48.697Z,68.22
2022-10-02T14:56:38.629Z,68.27
2022-10-02T14:59:11.319Z,69.04
2022-10-02T15:01:47.679Z,69.92
2022-10-02T15:04:26.727Z,70.18
2022-10-02T15:06:53.368Z,70.65
2022-10-02T15:09:49.622Z,71.06
2022-10-02T15:12:19.829Z,71.24
2022-10-02T15:14:57.703Z,72.04
2022-10-02T15:18:00.254Z,72.05
2022-10-02T15:20:31.146Z,72.47
2022-10-02T15:23:00.357Z,72.75
2022-10-02T15:26:02.988Z,73.11
2022-10-02T15:28:41.046Z,73.54
2022-10-02T15:31:32.432Z,73.48
2022-10-02T15:34:29.623Z,73.61
2022-10-02T15:37:16.144Z,74.01
2022-10-02T15:39:51.543Z,73.85
2022-10-02T15:42:41.340Z,74.02
2022-10-02T15:45:33.676Z,74.58
2022-10-02T15:48:28.462Z,74.49
2022-10-02T15:51:05.511Z,74.72
2022-10-02T15:53:46.166Z,74.47
2022-10-02T15:56:45.190Z,74.25
2022-10-02T15:59:17.800Z,74.19
2022-10-02T16:01:59.031Z,74.31
2022-10-02T16:04:34.651Z,74.25
2022-10-02T16:07:22.141Z,74.25
2022-10-02T16:10:02.730Z,74.41
2022-10-02T16:12:41.700Z,74.22
2022-10-02T16:15:30.353Z,74.41
2022-10-02T16:18:41.326Z,74.62
2022-10-02T16:21:59.247Z,74.48
2022-10-02T16:25:02.915Z,74.51
2022-10-02T16:27:51.560Z,74.54
2022-10-02T16:30:21.184Z,74.58
2022-10-02T16:33:20.505Z,74.33
2022-10-02T16:35:50.145Z,74.25
2022-10-02T16:38:48.482Z,74.26
2022-10-02T16:41:15.800Z,74.15
2022-10-02T16:43:43.191Z,74.00
2022-10-02T16:46:12.359Z,73.99
2022-10-02T16:48:42.040Z,73.99
2022-10-02T16:51:30.782Z,73.95
2022-10-02T16:54:17.249Z,73.76
2022-10-02T16:56:56.986Z,74.16
2022-10-02T16:59:44.072Z,74.13
2022-10-02T17:02:19.205Z,74.19
2022-10-02T17:04:59.585Z,74.46
2022-10-02T17:07:52.816Z,74.43
2022-10-02T17:10:29.860Z,74.42
2022-10-02T17:13:07.140Z,74.40
2022-10-02T17:15:40.397Z,74.57
2022-10-02T17:18:15.024Z,74.36
2022-10-02T17:20:51.654Z,74.48
2022-10-02T17:23:25.017Z,74.14
2022-10-02T17:26:03.972Z,74.13
2022-10-02T17:28:53.284Z,73.73
2022-10-02T17:31:43.829Z,73.74
2022-10-02T17:34:30.000Z,73.59
2022-10-02T17:37:09.150Z,73.75
2022-10-02T17:39:56.400Z,73.76
2022-10-02T17:42:32.747Z,73.67
2022-10-02T17:45:17.812Z,73.85
2022-10-02T17:48:07.699Z,73.67
2022-10-02T17:51:01.704Z,73.56
2022-10-02T17:53:56.602Z,73.43
2022-10-02T17:56:51.885Z,73.47
2022-10-02T17:59:37.096Z,73.64
2022-10-02T18:02:25.065Z,73.56
2022-10-02T18:05:25.912Z,73.57
2022-10-02T18:08:18.783Z,73.64
2022-10-02T18:10:55.781Z,73.87
2022-10-02T18:13:31.217Z,73.67
2022-10-02T18:16:11.414Z,73.77
2022-10-02T18:18:40.634Z,73.80
2022-10-02T18:21:32.879Z,73.88
2022-10-02T18:24:08.573Z,74.18
2022-10-02T18:26:58.682Z,74.09
2022-10-02T18:29:47.688Z,74.28
2022-10-02T18:32:45.332Z,74.42
2022-10-02T18:35:35.201Z,74.40
2022-10-02T18:38:25.440Z,74.29
2022-10-02T18:41:05.174Z,74.26
2022-10-02T18:43:47.589Z,74.40
2022-10-02T18:46:23.415Z,74.38
2022-10-02T18:49:10.504Z,74.09
2022-10-02T18:51:46.240Z,74.26
2022-10-02T18:54:28.819Z,74.08
2022-10-02T18:57:07.651Z,73.73
2022-10-02T18:59:44.967Z,73.64
2022-10-02T19:02:38.992Z,73.69
2022-10-02T19:05:30.120Z,73.51
2022-10-02T19:08:02.736Z,73.51
2022-10-02T19:10:32.366Z,73.39
2022-10-02T19:13:28.632Z,73.41
2022-10-02T19:15:58.564Z,73.33
2022-10-02T19:18:29.618Z,73.25
2022-10-02T19:20:57.108Z,73.16
2022-10-02T19:23:23.738Z,73.10
2022-10-02T19:25:52.369Z,73.08
2022-10-02T19:28:23.158Z,73.28
2022-10-02T19:30:52.418Z,73.21
2022-10-02T19:33:32.109Z,73.10
2022-10-02T19:36:03.451Z,73.45
2022-10-02T19:38:38.457Z,73.18
2022-10-02T19:41:14.864Z,73.24
2022-10-02T19:43:48.720Z,73.13
2022-10-02T19:46:16.318Z,73.10
2022-10-02T19:48:43.661Z,72.98
2022-10-02T19:51:18.577Z,73.18
2022-10-02T19:53:52.921Z,73.13
2022-10-02T19:56:28.243Z,73.04
2022-10-02T19:59:14.387Z,72.90
2022-10-02T20:01:54.897Z,72.87
2022-10-02T20:04:24.490Z,72.95
2022-10-02T20:06:54.959Z,72.85
2022-10-02T20:09:31.227Z,72.76
2022-10-02T20:12:01.443Z,72.84
2022-10-02T20:14:37.184Z,72.87
2022-10-02T20:17:10.357Z,72.66
2022-10-02T20:19:45.179Z,72.68
2022-10-02T20:22:24.287Z,72.75
2022-10-02T20:24:53.825Z,72.91
2022-10-02T20:27:41.799Z,72.65
2022-10-02T20:30:17.643Z,72.74
2022-10-02T20:32:53.892Z,72.88
2022-10-02T20:35:25.584Z,72.69
2022-10-02T20:37:54.104Z,72.53
2022-10-02T20:40:32.796Z,72.67
2022-10-02T20:43:00.527Z,72.54
2022-10-02T20:45:44.683Z,72.58
2022-10-02T20:49:07.063Z,72.31
2022-10-02T20:51:52.619Z,72.62
2022-10-02T20:54:41.823Z,72.62
2022-10-02T20:57:49.514Z,72.51
2022-10-02T21:00:24.923Z,72.44
2022-10-02T21:03:44.832Z,72.28
2022-10-02T21:06:19.316Z,72.27
2022-10-02T21:09:05.245Z,72.38
2022-10-02T21:11:45.413Z,72.49
2022-10-02T21:14:46.297Z,72.50
2022-10-02T21:17:16.027Z,72.44
2022-10-02T21:20:04.661Z,72.35
2022-10-02T21:22:50.404Z,72.20
2022-10-02T21:25:44.452Z,72.18
2022-10-02T21:28:36.069Z,72.45
2022-10-02T21:31:21.597Z,72.40
2022-10-02T21:34:18.150Z,72.13
2022-10-02T21:37:06.881Z,72.40
2022-10-02T21:39:39.491Z,72.20
2022-10-02T21:42:21.296Z,72.35
2022-10-02T21:45:13.727Z,72.28
2022-10-02T21:47:49.994Z,72.36
2022-10-02T21:50:54.244Z,72.41
2022-10-02T21:54:06.485Z,72.32
2022-10-02T21:56:58.685Z,72.32
2022-10-02T21:59:49.725Z,72.29
2022-10-02T22:02:30.246Z,72.29
2022-10-02T22:05:19.636Z,72.29
2022-10-02T22:08:08.021Z,72.27
2022-10-02T22:10:43.993Z,72.49
2022-10-02T22:13:28.116Z,72.40
2022-10-02T22:16:04.318Z,72.71
2022-10-02T22:18:51.281Z,72.46
2022-10-02T22:21:20.713Z,72.28
2022-10-02T22:24:17.011Z,72.27
2022-10-02T22:27:11.604Z,72.27
2022-10-02T22:29:45.928Z,72.33
2022-10-02T22:32:45.340Z,72.18
2022-10-02T22:35:30.369Z,72.29
2022-10-02T22:38:11.005Z,72.44
2022-10-02T22:40:51.321Z,72.64
2022-10-02T22:43:32.327Z,72.73
2022-10-02T22:46:09.111Z,72.49
2022-10-02T22:48:47.348Z,72.39
2022-10-02T22:51:32.752Z,72.44
2022-10-02T22:54:05.678Z,72.42
2022-10-02T22:56:37.424Z,72.57
2022-10-02T22:59:30.572Z,72.50
2022-10-02T23:02:20.770Z,72.78
2022-10-02T23:05:00.179Z,72.82
2022-10-02T23:07:31.023Z,72.98
2022-10-02T23:10:01.896Z,73.02
2022-10-02T23:12:52.540Z,73.10
2022-10-02T23:15:51.594Z,73.17
2022-10-02T23:18:39.659Z,73.36
2022-10-02T23:21:25.091Z,73.28
2022-10-02T23:24:12.985Z,73.41
2022-10-02T23:26:46.953Z,73.10
2022-10-02T23:29:25.860Z,73.10
2022-10-02T23:31:59.278Z,72.92
2022-10-02T23:34:37.555Z,72.84
2022-10-02T23:37:23.893Z,72.57
2022-10-02T23:40:04.073Z,73.08
2022-10-02T23:42:45.576Z,72.80
2022-10-02T23:45:26.819Z,72.65
2022-10-02T23:47:58.653Z,72.62
2022-10-02T23:50:33.716Z,72.53
2022-10-02T23:53:18.312Z,72.27
2022-10-02T23:56:00.310Z,72.58
2022-10-02T23:58:39.965Z,72.60
